Overview Statistics Trail Chart Weather Telemetry Raw packets
 

This is the latest recevied weather packets stored in our database for station/object N5JXS. If no packets are shown the sender has not sent any weather packets the latest 10 day(s).

<< 101 102 103 104 105 106 107 >>
Time Temp. Humidity Pressure Rain* Wind** Luminosity Snow
1787865284 27.22° C 30% 1030.6 hPa 0 mm - 565 W/m² -
1787864980 27.78° C 31% 1030.6 hPa 0 mm - 563 W/m² -
1787864676 27.78° C 31% 1030.5 hPa 0 mm - 558 W/m² -
1787864375 27.22° C 28% 1030.3 hPa 0 mm - 579 W/m² -
1787864074 27.22° C 27% 1030.6 hPa 0 mm - 600 W/m² -
1787863773 27.22° C 29% 1030.5 hPa 0 mm - 626 W/m² -
1787863472 26.67° C 29% 1030.5 hPa 0 mm - 646 W/m² -
1787863168 26.67° C 29% 1030.6 hPa 0 mm - 648 W/m² -
1787862864 26.11° C 29% 1030.8 hPa 0 mm - 633 W/m² -
1787862563 26.11° C 29% 1030.8 hPa 0 mm - 658 W/m² -
1787862259 25° C 35% 1031.2 hPa 0 mm - 661 W/m² -
1787861954 24.44° C 34% 1031 hPa 0 mm - 738 W/m² -
1787861654 22.78° C 42% 1031.1 hPa 0 mm - 754 W/m² -
1787861351 20.56° C 49% 1031.8 hPa 0 mm - 684 W/m² -
1787861047 20.56° C 49% 1031.7 hPa 0 mm - 141 W/m² -
1787860745 20.56° C 48% 1031.7 hPa 0 mm - 88 W/m² -
1787860441 20.56° C 47% 1031.9 hPa 0 mm - 72 W/m² -
1787860141 20.56° C 46% 1032.4 hPa 0 mm - 45 W/m² -
1787859837 20.56° C 46% 1032.6 hPa 0 mm - 43 W/m² -
1787859531 21.11° C 44% 1032.2 hPa 0 mm - 49 W/m² -
1787859225 22.22° C 44% 1031.8 hPa 0 mm - 74 W/m² -
1787858922 22.78° C 41% 1031.7 hPa 0 mm - 124 W/m² -
1787858618 22.78° C 40% 1031.6 hPa 0 mm - 174 W/m² -
1787858317 22.22° C 43% 1031.9 hPa 0 mm - 297 W/m² -
1787858008 22.22° C 44% 1032.2 hPa 0 mm - 175 W/m² -

* Rain latest hour (hover to see other rain measurements)
** Current wind speed in m/s (hover to see current wind gust speed)